Time;durP1;ratioP1;P1;durP2;ratioP2;P2;SDS_P1;SDS_P2;PMS_P1;PMS_P2;Temp;Humidity;BMP_temperature;BMP_pressure;BME280_temperature;BME280_humidity;BME280_pressure;Samples;Min_cycle;Max_cycle;Signal;HPM_P1;HPM_P2
2023/07/29 00:00:47;;;;;;;9.18;6.18;;;22.20;74.10;;;;;;4997968;28;20037;-66
2023/07/29 00:03:13;;;;;;;6.93;5.82;;;22.20;74.20;;;;;;4997421;28;20026;-65
2023/07/29 00:05:41;;;;;;;8.73;5.93;;;22.10;74.10;;;;;;4997819;28;20072;-60
2023/07/29 00:08:07;;;;;;;10.15;6.13;;;22.10;74.20;;;;;;4997297;28;20033;-63
2023/07/29 00:10:36;;;;;;;8.35;6.00;;;22.10;74.20;;;;;;4997520;28;20078;-59
2023/07/29 00:13:03;;;;;;;7.95;5.93;;;22.10;74.10;;;;;;4997478;28;20030;-59
2023/07/29 00:15:29;;;;;;;8.00;5.68;;;22.10;74.10;;;;;;4997269;28;20105;-64
2023/07/29 00:17:55;;;;;;;5.35;4.85;;;22.10;74.10;;;;;;4997044;28;20053;-65
2023/07/29 00:20:21;;;;;;;7.28;5.70;;;22.00;74.10;;;;;;4997116;28;20065;-66
2023/07/29 00:22:49;;;;;;;7.63;5.45;;;22.10;74.10;;;;;;4997580;28;20050;-61
2023/07/29 00:25:16;;;;;;;10.00;6.43;;;22.10;74.00;;;;;;4995915;28;20453;-64
2023/07/29 00:27:42;;;;;;;8.02;5.47;;;22.00;74.00;;;;;;4996040;28;20469;-66
2023/07/29 00:30:08;;;;;;;9.18;5.43;;;22.00;74.10;;;;;;4996363;28;20463;-64
2023/07/29 00:32:36;;;;;;;7.05;5.00;;;22.00;74.20;;;;;;4996888;28;20014;-66
2023/07/29 00:35:02;;;;;;;6.15;5.00;;;22.00;74.20;;;;;;4996791;28;20041;-63
2023/07/29 00:37:29;;;;;;;7.20;5.05;;;22.00;74.20;;;;;;4996919;28;20125;-63
2023/07/29 00:39:56;;;;;;;8.27;5.30;;;22.00;74.30;;;;;;4996636;28;20038;-64
2023/07/29 00:42:22;;;;;;;9.05;5.15;;;22.00;74.40;;;;;;4996065;28;20033;-63
2023/07/29 00:44:48;;;;;;;7.18;5.30;;;22.00;74.40;;;;;;4996480;28;20076;-63
2023/07/29 00:47:16;;;;;;;6.65;4.82;;;21.90;74.40;;;;;;4995559;28;20137;-65
2023/07/29 00:49:44;;;;;;;8.40;5.03;;;21.90;74.40;;;;;;4996539;28;20093;-62
2023/07/29 00:52:12;;;;;;;4.97;4.45;;;21.90;74.40;;;;;;4995569;28;20036;-62
2023/07/29 00:54:42;;;;;;;5.85;4.50;;;21.90;74.50;;;;;;4996421;28;20034;-64
2023/07/29 00:57:10;;;;;;;6.38;5.05;;;21.90;74.50;;;;;;4996632;28;20029;-60
2023/07/29 00:59:38;;;;;;;9.40;6.68;;;21.90;74.50;;;;;;4996369;28;20069;-64
2023/07/29 01:02:04;;;;;;;8.30;5.57;;;21.90;74.50;;;;;;4996277;28;20109;-64
2023/07/29 01:04:31;;;;;;;7.03;4.95;;;21.90;74.60;;;;;;4996518;28;20030;-61
2023/07/29 01:07:23;;;;;;;10.80;5.68;;;21.80;74.60;;;;;;4996232;28;20030;-62
2023/07/29 01:10:03;;;;;;;6.45;5.28;;;21.80;74.90;;;;;;4996509;28;20026;-62
2023/07/29 01:12:57;;;;;;;7.82;5.82;;;21.80;74.70;;;;;;4995977;28;20376;-65
2023/07/29 01:15:26;;;;;;;8.25;6.03;;;21.70;74.70;;;;;;4996074;28;20342;-62
2023/07/29 01:18:02;;;;;;;6.88;5.22;;;21.70;74.70;;;;;;4996106;28;20054;-63
2023/07/29 01:20:35;;;;;;;9.77;6.25;;;21.70;74.70;;;;;;4996063;28;20488;-65
2023/07/29 01:23:01;;;;;;;8.50;6.13;;;21.60;74.60;;;;;;4996113;28;20026;-63
2023/07/29 01:25:27;;;;;;;6.45;5.50;;;21.60;74.80;;;;;;4996428;28;20040;-61
2023/07/29 01:27:55;;;;;;;7.93;5.40;;;21.60;74.80;;;;;;4995913;28;20076;-61
2023/07/29 01:30:26;;;;;;;12.18;6.35;;;21.60;74.80;;;;;;4996164;28;20026;-66
2023/07/29 01:33:04;;;;;;;10.40;7.13;;;21.60;74.70;;;;;;4994907;28;20018;-64
2023/07/29 01:35:42;;;;;;;9.13;6.70;;;21.60;74.70;;;;;;4995069;28;20396;-60
2023/07/29 01:38:35;;;;;;;7.50;5.63;;;21.60;74.60;;;;;;4995783;28;20052;-63
2023/07/29 01:41:08;;;;;;;7.75;5.85;;;21.50;74.80;;;;;;4991582;28;20046;-60
2023/07/29 01:43:39;;;;;;;7.90;5.80;;;21.50;74.70;;;;;;4994960;28;20088;-59
2023/07/29 01:46:05;;;;;;;6.88;5.47;;;21.40;74.80;;;;;;4994726;28;20444;-61
2023/07/29 01:48:31;;;;;;;8.07;5.57;;;21.50;74.80;;;;;;4995647;28;20137;-59
2023/07/29 01:50:58;;;;;;;9.40;5.55;;;21.40;74.90;;;;;;4995684;28;20037;-63
2023/07/29 01:53:23;;;;;;;8.07;5.82;;;21.40;75.00;;;;;;4996195;28;20023;-58
2023/07/29 01:55:49;;;;;;;7.55;5.45;;;21.40;74.90;;;;;;4995665;28;20029;-60
2023/07/29 01:58:15;;;;;;;6.93;5.63;;;21.40;74.90;;;;;;4996093;28;20026;-63
2023/07/29 02:00:41;;;;;;;8.57;6.07;;;21.40;74.90;;;;;;4996139;28;20042;-59
2023/07/29 02:03:08;;;;;;;7.88;5.40;;;21.40;75.00;;;;;;4995854;28;20050;-66
2023/07/29 02:05:34;;;;;;;6.05;5.25;;;21.40;75.00;;;;;;4995506;28;20105;-60
2023/07/29 02:08:00;;;;;;;6.45;5.22;;;21.40;75.00;;;;;;4995531;28;20030;-62
2023/07/29 02:10:26;;;;;;;6.18;5.00;;;21.40;75.00;;;;;;4995823;28;20060;-66
2023/07/29 02:12:52;;;;;;;8.02;5.25;;;21.40;75.00;;;;;;4996064;28;20058;-64
2023/07/29 02:15:18;;;;;;;7.95;4.85;;;21.40;74.90;;;;;;4994559;28;20531;-63
2023/07/29 02:17:44;;;;;;;7.05;4.93;;;21.30;74.90;;;;;;4995356;28;20034;-61
2023/07/29 02:20:10;;;;;;;6.28;4.68;;;21.30;75.00;;;;;;4995687;28;20117;-62
2023/07/29 02:22:37;;;;;;;9.38;5.43;;;21.30;75.00;;;;;;4995679;28;20026;-66
2023/07/29 02:25:03;;;;;;;6.63;4.90;;;21.20;74.90;;;;;;4995886;28;20052;-65
2023/07/29 02:27:29;;;;;;;6.40;4.78;;;21.20;74.90;;;;;;4995367;28;20038;-64
2023/07/29 02:29:56;;;;;;;8.43;5.88;;;21.20;74.90;;;;;;4995637;28;20022;-61
2023/07/29 02:32:22;;;;;;;6.82;4.68;;;21.20;74.90;;;;;;4995353;28;20018;-59
2023/07/29 02:34:49;;;;;;;6.00;4.53;;;21.10;74.80;;;;;;4995280;28;20145;-61
2023/07/29 02:37:15;;;;;;;7.40;4.75;;;21.10;74.70;;;;;;4995217;28;20023;-65
2023/07/29 02:39:41;;;;;;;7.30;4.50;;;21.10;74.70;;;;;;4995569;28;20117;-66
2023/07/29 02:42:08;;;;;;;5.78;4.30;;;21.10;74.60;;;;;;4995279;28;20054;-60
2023/07/29 02:44:34;;;;;;;5.57;4.53;;;21.10;74.50;;;;;;4995268;28;20038;-62
2023/07/29 02:47:00;;;;;;;6.53;4.78;;;21.10;74.50;;;;;;4995380;28;20033;-61
2023/07/29 02:49:26;;;;;;;6.20;4.30;;;21.10;74.40;;;;;;4995200;28;20030;-63
2023/07/29 02:51:52;;;;;;;8.85;5.18;;;21.10;74.30;;;;;;4995723;28;20104;-62
2023/07/29 02:54:18;;;;;;;6.55;4.85;;;21.10;74.20;;;;;;4997143;28;20062;-64
2023/07/29 02:56:44;;;;;;;8.98;5.00;;;21.10;74.10;;;;;;4998569;28;20449;-64
2023/07/29 02:59:10;;;;;;;6.00;4.78;;;21.10;74.00;;;;;;4998622;28;20053;-63
2023/07/29 03:01:36;;;;;;;8.40;5.40;;;21.10;74.00;;;;;;4998569;28;20026;-64
2023/07/29 03:04:03;;;;;;;9.30;5.28;;;21.00;73.90;;;;;;4998512;28;20030;-60
2023/07/29 03:06:28;;;;;;;9.75;5.25;;;20.90;73.90;;;;;;4998589;28;20050;-64
2023/07/29 03:08:55;;;;;;;7.78;5.45;;;21.00;73.90;;;;;;4998704;28;20069;-66
2023/07/29 03:11:21;;;;;;;7.72;5.25;;;20.90;73.90;;;;;;4998157;28;20141;-59
2023/07/29 03:13:47;;;;;;;7.20;5.00;;;20.90;73.90;;;;;;4998835;28;20389;-62
2023/07/29 03:16:15;;;;;;;8.40;4.82;;;20.90;74.00;;;;;;4998175;28;20023;-62
2023/07/29 03:18:42;;;;;;;8.10;4.80;;;20.90;74.10;;;;;;4998264;28;20042;-61
2023/07/29 03:21:09;;;;;;;5.60;4.60;;;20.90;74.20;;;;;;4998252;28;20037;-63
2023/07/29 03:23:36;;;;;;;6.72;4.88;;;20.90;74.20;;;;;;4997220;28;20122;-62
2023/07/29 03:26:09;;;;;;;7.50;6.20;;;20.90;74.20;;;;;;4997985;28;20026;-61
2023/07/29 03:28:37;;;;;;;7.00;5.07;;;20.80;74.10;;;;;;4997161;28;20054;-64
2023/07/29 03:31:03;;;;;;;8.48;5.30;;;20.80;74.10;;;;;;4998527;28;20027;-63
2023/07/29 03:33:30;;;;;;;7.10;5.03;;;20.80;74.20;;;;;;4998192;28;20038;-64
2023/07/29 03:35:56;;;;;;;7.28;4.75;;;20.70;74.20;;;;;;4998414;28;20056;-63
2023/07/29 03:38:22;;;;;;;5.90;4.68;;;20.70;74.30;;;;;;4997862;28;20144;-63
2023/07/29 03:40:48;;;;;;;6.25;4.60;;;20.70;74.40;;;;;;4998099;28;20027;-63
2023/07/29 03:43:14;;;;;;;6.47;4.70;;;20.70;74.50;;;;;;4996890;28;20054;-59
2023/07/29 03:45:41;;;;;;;9.23;4.78;;;20.70;74.50;;;;;;4998230;28;20073;-66
2023/07/29 03:48:07;;;;;;;6.15;4.60;;;20.70;74.50;;;;;;4997652;28;20034;-62
2023/07/29 03:50:37;;;;;;;8.13;5.20;;;20.80;74.40;;;;;;4997736;28;20053;-61
2023/07/29 03:53:04;;;;;;;7.35;5.70;;;20.80;74.70;;;;;;4997945;28;20022;-65
2023/07/29 03:55:30;;;;;;;5.55;4.80;;;20.70;74.60;;;;;;4998166;28;20038;-62
2023/07/29 03:57:57;;;;;;;8.18;4.70;;;20.70;74.60;;;;;;4997999;28;20487;-64
2023/07/29 04:00:24;;;;;;;5.82;4.47;;;20.70;74.60;;;;;;4997778;28;20041;-63
2023/07/29 04:02:50;;;;;;;7.20;4.80;;;20.70;74.60;;;;;;4997970;28;20030;-64
2023/07/29 04:05:16;;;;;;;8.40;4.90;;;20.70;74.60;;;;;;4996427;28;20120;-66
2023/07/29 04:07:43;;;;;;;7.10;4.47;;;20.70;74.60;;;;;;4997312;28;20037;-60
2023/07/29 04:10:09;;;;;;;6.88;4.85;;;20.80;74.50;;;;;;4997147;28;20029;-67
2023/07/29 04:12:35;;;;;;;6.07;4.57;;;20.80;74.50;;;;;;4997506;28;20042;-66
2023/07/29 04:15:01;;;;;;;5.88;4.40;;;20.90;74.50;;;;;;4997499;28;20031;-64
2023/07/29 04:17:28;;;;;;;6.28;4.30;;;20.90;74.40;;;;;;4997619;28;20025;-63
2023/07/29 04:19:54;;;;;;;5.15;4.30;;;20.90;74.30;;;;;;4997340;28;20026;-65
2023/07/29 04:22:20;;;;;;;6.38;4.38;;;21.00;74.30;;;;;;4996428;28;20033;-62
2023/07/29 04:24:46;;;;;;;6.10;4.30;;;21.10;74.20;;;;;;4997580;28;20097;-63
2023/07/29 04:27:12;;;;;;;5.63;4.40;;;21.10;74.10;;;;;;4997196;28;20040;-62
2023/07/29 04:29:38;;;;;;;7.47;4.53;;;21.20;74.10;;;;;;4996996;28;20403;-64
2023/07/29 04:32:05;;;;;;;7.20;4.80;;;21.40;74.00;;;;;;4997116;28;20023;-62
2023/07/29 04:34:31;;;;;;;6.85;4.60;;;21.40;73.90;;;;;;4997101;28;20022;-61
2023/07/29 04:36:58;;;;;;;9.00;5.30;;;21.50;73.70;;;;;;4996753;28;20444;-63
2023/07/29 04:39:24;;;;;;;6.13;4.32;;;21.70;73.70;;;;;;4997007;28;20349;-62
2023/07/29 04:41:49;;;;;;;5.72;4.97;;;21.70;73.70;;;;;;4996751;28;20037;-67
2023/07/29 04:44:15;;;;;;;5.78;4.65;;;21.90;73.70;;;;;;4996953;28;20026;-65
2023/07/29 04:46:42;;;;;;;7.03;4.57;;;22.40;73.40;;;;;;4996796;28;20034;-65
2023/07/29 04:49:07;;;;;;;6.47;4.75;;;22.80;72.70;;;;;;4996819;28;20026;-62
2023/07/29 04:51:33;;;;;;;8.52;5.40;;;23.20;71.50;;;;;;4996491;28;20353;-62
2023/07/29 04:53:59;;;;;;;11.88;5.60;;;23.80;70.70;;;;;;4995833;28;20054;-63
2023/07/29 04:56:26;;;;;;;8.90;4.35;;;24.40;69.30;;;;;;4996912;28;20160;-63
2023/07/29 04:58:52;;;;;;;6.18;4.72;;;25.30;67.60;;;;;;4996437;28;20113;-62
2023/07/29 05:01:18;;;;;;;5.68;4.50;;;26.20;65.60;;;;;;4996633;28;20153;-62
2023/07/29 05:03:45;;;;;;;6.18;4.10;;;27.20;63.70;;;;;;4996343;28;20033;-59
2023/07/29 05:06:11;;;;;;;5.95;4.20;;;28.10;61.80;;;;;;4996111;28;20022;-62
2023/07/29 05:08:37;;;;;;;10.02;4.15;;;29.00;59.80;;;;;;4995588;28;20026;-63
2023/07/29 05:11:03;;;;;;;5.18;4.30;;;29.80;57.70;;;;;;4996133;28;20051;-61
2023/07/29 05:13:29;;;;;;;8.57;4.65;;;30.40;55.90;;;;;;4996622;28;20039;-65
2023/07/29 05:15:55;;;;;;;7.43;4.10;;;30.60;55.00;;;;;;4995034;28;20023;-62
2023/07/29 05:18:21;;;;;;;6.43;4.60;;;30.30;54.50;;;;;;4996276;28;20056;-62
2023/07/29 05:20:47;;;;;;;8.05;4.45;;;29.60;54.90;;;;;;4996582;28;20038;-64
2023/07/29 05:23:13;;;;;;;6.80;4.38;;;28.90;55.80;;;;;;4996192;28;20460;-60
2023/07/29 05:25:40;;;;;;;9.55;5.07;;;28.40;56.90;;;;;;4995910;28;20058;-61
2023/07/29 05:28:06;;;;;;;7.15;4.28;;;28.10;57.70;;;;;;4996353;28;20417;-64
2023/07/29 05:30:33;;;;;;;10.30;5.40;;;27.70;58.30;;;;;;4996433;28;20038;-64
2023/07/29 05:33:00;;;;;;;8.27;5.50;;;27.60;58.90;;;;;;4996129;28;20054;-64
2023/07/29 05:35:26;;;;;;;11.90;6.13;;;28.40;58.80;;;;;;4995460;28;20022;-62
2023/07/29 05:37:52;;;;;;;6.82;4.78;;;29.50;57.20;;;;;;4996479;28;20504;-63
2023/07/29 05:40:18;;;;;;;7.13;4.60;;;30.70;55.40;;;;;;4995855;28;20105;-63
2023/07/29 05:42:45;;;;;;;9.18;5.55;;;32.00;53.20;;;;;;4995806;28;20061;-66
2023/07/29 05:45:12;;;;;;;7.28;5.30;;;33.30;50.80;;;;;;4995713;28;20106;-65
2023/07/29 05:47:38;;;;;;;7.88;4.85;;;34.40;48.40;;;;;;4995712;28;20105;-62
2023/07/29 05:50:04;;;;;;;7.57;4.50;;;35.30;46.20;;;;;;4995970;28;20098;-60
2023/07/29 05:52:31;;;;;;;7.80;4.85;;;36.10;44.40;;;;;;4995738;28;20022;-62
2023/07/29 05:54:57;;;;;;;6.85;4.45;;;36.80;43.00;;;;;;4995964;28;20129;-66
2023/07/29 05:57:23;;;;;;;7.25;3.95;;;37.00;42.10;;;;;;4994894;28;20054;-61
2023/07/29 05:59:49;;;;;;;6.57;4.40;;;36.60;42.00;;;;;;4995669;28;20023;-65
2023/07/29 06:02:15;;;;;;;7.35;4.30;;;36.30;42.10;;;;;;4995843;28;20042;-61
2023/07/29 06:04:41;;;;;;;6.07;3.97;;;36.60;41.70;;;;;;4994913;28;20041;-65
2023/07/29 06:07:08;;;;;;;6.15;3.78;;;37.10;41.40;;;;;;4995426;28;20030;-60
2023/07/29 06:09:34;;;;;;;7.53;4.18;;;38.00;40.70;;;;;;4995819;28;20049;-67
2023/07/29 06:12:00;;;;;;;6.10;3.80;;;39.00;39.50;;;;;;4995979;28;20460;-61
2023/07/29 06:14:26;;;;;;;6.80;4.03;;;39.80;38.20;;;;;;4995552;28;20508;-67
2023/07/29 06:16:52;;;;;;;4.50;3.80;;;40.50;37.10;;;;;;4994446;28;20113;-61
2023/07/29 06:19:20;;;;;;;5.47;3.88;;;41.20;36.20;;;;;;4995574;28;20034;-66
2023/07/29 06:21:46;;;;;;;5.53;3.95;;;41.60;35.40;;;;;;4995327;28;20030;-63
2023/07/29 06:24:13;;;;;;;8.30;4.03;;;42.00;34.70;;;;;;4995717;28;20061;-63
2023/07/29 06:26:39;;;;;;;8.35;4.80;;;42.40;34.20;;;;;;4995340;28;20416;-66
2023/07/29 06:29:05;;;;;;;5.05;4.15;;;42.70;33.60;;;;;;4997720;28;20026;-59
2023/07/29 06:31:32;;;;;;;4.47;3.78;;;43.00;33.20;;;;;;4999674;28;20018;-64
2023/07/29 06:33:58;;;;;;;6.38;3.75;;;43.10;32.90;;;;;;4999053;28;20031;-59
2023/07/29 06:36:25;;;;;;;5.70;3.80;;;43.40;32.60;;;;;;4998950;28;20030;-59
2023/07/29 06:38:51;;;;;;;5.93;3.90;;;43.70;32.40;;;;;;4999547;28;20026;-62
2023/07/29 06:41:17;;;;;;;6.53;3.60;;;43.90;32.00;;;;;;4997970;28;20076;-60
2023/07/29 06:43:43;;;;;;;7.97;4.70;;;44.30;31.80;;;;;;4998935;28;20022;-63
2023/07/29 06:46:09;;;;;;;6.35;4.15;;;44.70;31.10;;;;;;4999015;28;20037;-65
2023/07/29 06:48:35;;;;;;;5.75;4.18;;;44.70;30.50;;;;;;4997815;28;20384;-63
2023/07/29 06:51:02;;;;;;;5.43;3.70;;;44.80;30.00;;;;;;4998776;28;20018;-63
2023/07/29 06:53:28;;;;;;;4.82;3.63;;;45.00;29.80;;;;;;4999065;28;20030;-63
2023/07/29 06:55:54;;;;;;;6.22;4.45;;;44.90;29.50;;;;;;4998694;28;20026;-60
2023/07/29 06:58:21;;;;;;;6.00;4.05;;;44.50;29.60;;;;;;4998650;28;20022;-63
2023/07/29 07:00:47;;;;;;;6.22;3.90;;;43.60;30.20;;;;;;4998910;28;20516;-64
2023/07/29 07:03:13;;;;;;;7.30;4.05;;;42.30;31.60;;;;;;4998588;28;20110;-66
2023/07/29 07:05:39;;;;;;;7.28;4.18;;;40.90;33.40;;;;;;4998991;28;20040;-62
2023/07/29 07:08:05;;;;;;;6.55;4.10;;;39.50;35.20;;;;;;4998657;28;20026;-60
2023/07/29 07:10:31;;;;;;;6.13;4.60;;;38.20;37.00;;;;;;4998477;28;20047;-65
2023/07/29 07:12:57;;;;;;;6.07;4.40;;;37.00;38.70;;;;;;4998731;28;20471;-65
2023/07/29 07:15:23;;;;;;;8.50;4.63;;;36.10;40.20;;;;;;4998298;28;20449;-63
2023/07/29 07:17:50;;;;;;;7.70;4.32;;;35.40;41.40;;;;;;4998523;28;20027;-63
2023/07/29 07:20:16;;;;;;;5.50;3.90;;;34.80;42.50;;;;;;4998313;28;20473;-61
2023/07/29 07:22:43;;;;;;;9.20;5.38;;;34.30;43.50;;;;;;4997273;28;20045;-63
2023/07/29 07:25:09;;;;;;;10.52;5.30;;;34.00;44.40;;;;;;4997240;28;20038;-61
2023/07/29 07:27:36;;;;;;;5.93;4.40;;;33.40;45.30;;;;;;4998134;28;20459;-61
2023/07/29 07:30:02;;;;;;;6.50;4.30;;;32.90;46.40;;;;;;4997353;28;20117;-64
2023/07/29 07:32:28;;;;;;;7.10;4.90;;;32.70;47.10;;;;;;4998324;28;20424;-61
2023/07/29 07:34:54;;;;;;;4.90;4.13;;;32.60;47.40;;;;;;4998245;28;20024;-64
2023/07/29 07:37:22;;;;;;;8.13;4.65;;;32.60;47.50;;;;;;4996968;28;20392;-61
2023/07/29 07:39:48;;;;;;;5.28;3.95;;;32.50;47.90;;;;;;4997857;28;20023;-63
2023/07/29 07:42:14;;;;;;;9.60;4.70;;;32.40;48.10;;;;;;4997935;28;20057;-62
2023/07/29 07:44:40;;;;;;;8.65;5.32;;;32.40;48.20;;;;;;4997879;28;20010;-61
2023/07/29 07:47:06;;;;;;;5.55;4.13;;;32.40;48.40;;;;;;4996721;28;20027;-63
2023/07/29 07:49:32;;;;;;;5.75;4.18;;;32.40;48.20;;;;;;4998038;28;20018;-64
2023/07/29 07:51:58;;;;;;;6.45;4.10;;;32.50;48.10;;;;;;4997744;28;20421;-65
2023/07/29 07:54:24;;;;;;;6.97;4.20;;;32.50;48.30;;;;;;4997973;28;20057;-63
2023/07/29 07:56:50;;;;;;;5.88;4.20;;;32.60;48.40;;;;;;4997514;28;20333;-64
2023/07/29 07:59:16;;;;;;;8.10;5.10;;;32.60;48.20;;;;;;4998070;28;20342;-63
2023/07/29 08:01:43;;;;;;;5.28;4.20;;;32.40;48.10;;;;;;4997565;28;20030;-64
2023/07/29 08:04:09;;;;;;;7.82;4.85;;;32.20;48.30;;;;;;4997501;28;20026;-66
2023/07/29 08:06:35;;;;;;;6.20;4.50;;;32.00;48.90;;;;;;4997840;28;20109;-62
2023/07/29 08:09:04;;;;;;;5.45;4.20;;;32.00;49.20;;;;;;4997671;28;20104;-64
2023/07/29 08:11:30;;;;;;;5.18;3.53;;;31.90;49.30;;;;;;4997030;28;20046;-65
2023/07/29 08:13:58;;;;;;;5.75;4.20;;;31.70;49.60;;;;;;4997588;28;20033;-63
2023/07/29 08:16:24;;;;;;;7.20;4.00;;;31.70;49.80;;;;;;4997213;28;20065;-64
2023/07/29 08:18:50;;;;;;;6.13;3.75;;;31.70;49.70;;;;;;4997235;28;20035;-59
2023/07/29 08:21:16;;;;;;;7.43;3.58;;;31.80;49.50;;;;;;4997444;28;20022;-63
2023/07/29 08:23:42;;;;;;;8.20;4.00;;;31.80;49.60;;;;;;4997050;28;20037;-62
2023/07/29 08:26:08;;;;;;;6.03;4.30;;;32.00;49.70;;;;;;4997019;28;20133;-63
2023/07/29 08:28:38;;;;;;;7.25;4.80;;;32.10;49.60;;;;;;4997532;28;20153;-64
2023/07/29 08:31:08;;;;;;;5.90;3.72;;;32.10;49.40;;;;;;4996342;28;20030;-59
2023/07/29 08:33:34;;;;;;;8.57;4.20;;;32.20;49.60;;;;;;4996926;28;20027;-65
2023/07/29 08:36:00;;;;;;;7.90;4.15;;;32.10;49.50;;;;;;4996791;28;20022;-61
2023/07/29 08:38:27;;;;;;;4.68;4.00;;;32.00;49.70;;;;;;4997373;28;20089;-63
2023/07/29 08:41:11;;;;;;;8.00;5.03;;;32.00;50.10;;;;;;4997329;28;20035;-63
2023/07/29 08:43:41;;;;;;;4.47;3.72;;;32.00;50.30;;;;;;4995790;28;20040;-64
2023/07/29 08:46:10;;;;;;;5.10;4.00;;;31.90;50.40;;;;;;4995924;28;20026;-66
2023/07/29 08:48:41;;;;;;;5.90;3.67;;;32.00;50.40;;;;;;4996693;28;20090;-65
2023/07/29 08:51:11;;;;;;;8.93;4.18;;;31.90;50.60;;;;;;4995211;28;20042;-62
2023/07/29 08:53:38;;;;;;;6.20;3.33;;;32.00;50.60;;;;;;4996848;28;20022;-62
2023/07/29 08:56:05;;;;;;;5.93;3.45;;;32.00;50.70;;;;;;4995432;28;20050;-64
2023/07/29 08:58:31;;;;;;;5.63;3.30;;;32.10;50.60;;;;;;4996728;28;20062;-59
2023/07/29 09:00:57;;;;;;;3.92;3.05;;;32.20;50.60;;;;;;4996436;28;20030;-64
2023/07/29 09:03:23;;;;;;;4.13;3.05;;;32.30;50.30;;;;;;4996352;28;20105;-65
2023/07/29 09:05:50;;;;;;;6.10;3.50;;;32.40;50.20;;;;;;4996215;28;20109;-63
2023/07/29 09:08:17;;;;;;;4.43;3.17;;;32.40;50.00;;;;;;4996506;28;20018;-65
2023/07/29 09:10:43;;;;;;;4.28;3.33;;;32.40;50.00;;;;;;4994450;28;20120;-65
2023/07/29 09:13:14;;;;;;;7.57;3.47;;;32.40;49.70;;;;;;4996379;28;20437;-60
2023/07/29 09:15:42;;;;;;;6.13;3.40;;;32.40;49.80;;;;;;4998063;28;20041;-63
2023/07/29 09:18:10;;;;;;;6.82;3.20;;;32.60;50.00;;;;;;4997378;28;20449;-63
2023/07/29 09:20:36;;;;;;;6.75;3.90;;;32.70;50.00;;;;;;4997480;28;20318;-63
2023/07/29 09:23:03;;;;;;;5.85;3.53;;;32.80;49.80;;;;;;4995919;28;20104;-60
2023/07/29 09:25:30;;;;;;;4.45;3.42;;;32.80;49.30;;;;;;4995982;28;20026;-67
2023/07/29 09:28:11;;;;;;;7.25;3.85;;;32.70;48.90;;;;;;4995797;28;20047;-61
2023/07/29 09:30:40;;;;;;;5.35;3.50;;;32.50;48.80;;;;;;4996587;28;20038;-63
2023/07/29 09:33:07;;;;;;;4.70;3.10;;;32.40;49.20;;;;;;4996221;28;20015;-61
2023/07/29 09:35:35;;;;;;;6.47;3.88;;;32.40;49.30;;;;;;4996516;28;20116;-65
2023/07/29 09:38:03;;;;;;;5.80;3.60;;;32.40;49.10;;;;;;4996138;28;20037;-64
2023/07/29 09:40:39;;;;;;;7.57;4.35;;;32.30;49.00;;;;;;4996180;28;20031;-64
2023/07/29 09:43:07;;;;;;;6.35;3.70;;;32.20;49.40;;;;;;4996146;28;20038;-61
2023/07/29 09:45:35;;;;;;;5.47;3.95;;;32.00;49.80;;;;;;4996081;28;20033;-60
2023/07/29 09:48:03;;;;;;;6.57;4.57;;;32.00;49.90;;;;;;4995768;28;20022;-62
2023/07/29 09:50:29;;;;;;;6.30;3.97;;;31.90;49.90;;;;;;4996264;28;20038;-62
2023/07/29 09:52:58;;;;;;;8.20;4.65;;;31.80;50.30;;;;;;4996286;28;20026;-62
2023/07/29 09:55:25;;;;;;;10.45;4.80;;;31.90;50.20;;;;;;4995101;28;20118;-64
2023/07/29 09:58:01;;;;;;;6.40;3.63;;;31.80;50.50;;;;;;4994759;28;20027;-66
2023/07/29 10:00:32;;;;;;;8.65;3.97;;;31.70;50.50;;;;;;4995702;28;20041;-64
2023/07/29 10:02:59;;;;;;;7.50;3.92;;;31.60;50.80;;;;;;4995729;28;20520;-64
2023/07/29 10:05:29;;;;;;;7.97;3.60;;;31.60;51.00;;;;;;5000117;28;20034;-65
2023/07/29 10:07:56;;;;;;;6.13;3.40;;;31.50;51.00;;;;;;4999794;28;20105;-65
2023/07/29 10:10:22;;;;;;;6.20;3.80;;;31.40;51.10;;;;;;4999279;28;20031;-63
2023/07/29 10:12:49;;;;;;;7.63;4.03;;;31.40;51.10;;;;;;4998761;28;20437;-64
2023/07/29 10:15:15;;;;;;;5.32;3.35;;;31.40;51.20;;;;;;4998187;28;20058;-62
2023/07/29 10:17:41;;;;;;;8.43;3.83;;;31.50;51.30;;;;;;4998129;28;20068;-65
2023/07/29 10:20:09;;;;;;;5.05;3.65;;;31.50;51.00;;;;;;4998326;28;20041;-64
2023/07/29 10:22:43;;;;;;;5.47;3.28;;;31.50;50.90;;;;;;4998291;28;20023;-63
2023/07/29 10:25:38;;;;;;;6.63;3.63;;;31.60;50.90;;;;;;4996939;28;20054;-64
2023/07/29 10:28:08;;;;;;;5.75;3.50;;;31.70;50.70;;;;;;4994187;28;20027;-66
2023/07/29 10:30:34;;;;;;;8.35;4.15;;;31.80;50.60;;;;;;4997013;28;20033;-63
2023/07/29 10:33:04;;;;;;;7.05;4.43;;;31.90;50.80;;;;;;4997919;28;20069;-63
2023/07/29 10:35:33;;;;;;;9.75;4.07;;;32.00;50.80;;;;;;4997843;28;20341;-62
2023/07/29 10:38:02;;;;;;;7.22;4.30;;;31.90;50.70;;;;;;4998505;28;20038;-65
2023/07/29 10:40:50;;;;;;;5.22;3.72;;;31.90;50.70;;;;;;4997728;28;20030;-61
2023/07/29 10:43:24;;;;;;;4.93;3.60;;;32.10;50.50;;;;;;4997173;28;20145;-64
2023/07/29 10:45:51;;;;;;;7.90;4.68;;;32.00;50.20;;;;;;4997942;28;20027;-62
2023/07/29 10:48:35;;;;;;;9.15;3.78;;;32.00;50.40;;;;;;4997581;28;20314;-63
2023/07/29 10:51:37;;;;;;;5.97;3.80;;;32.00;50.40;;;;;;4997572;28;20035;-62
2023/07/29 10:54:09;;;;;;;7.35;3.90;;;31.90;50.30;;;;;;4995952;28;20066;-64
2023/07/29 10:56:42;;;;;;;8.68;3.97;;;31.90;50.20;;;;;;4997723;28;20030;-67
2023/07/29 10:59:17;;;;;;;8.35;4.30;;;31.80;50.50;;;;;;4997796;28;20415;-59
2023/07/29 11:01:51;;;;;;;7.50;3.78;;;31.60;50.60;;;;;;4997407;28;20045;-64
2023/07/29 11:04:20;;;;;;;5.70;3.80;;;31.60;50.80;;;;;;4996852;28;20023;-62
2023/07/29 11:07:04;;;;;;;9.65;4.22;;;31.60;50.70;;;;;;4997527;28;20069;-65
2023/07/29 11:09:48;;;;;;;8.38;4.22;;;31.70;50.20;;;;;;4997636;28;20038;-65
2023/07/29 11:12:50;;;;;;;8.17;4.30;;;31.60;50.30;;;;;;4944616;28;1521949;-63
2023/07/29 11:15:24;;;;;;;8.02;4.50;;;31.60;50.30;;;;;;4998319;28;20045;-64
2023/07/29 11:18:00;;;;;;;7.70;4.95;;;31.60;50.50;;;;;;4998474;28;20033;-62
2023/07/29 11:20:27;;;;;;;8.20;4.32;;;31.70;50.70;;;;;;4998856;28;20029;-64
2023/07/29 11:22:55;;;;;;;7.88;4.80;;;31.70;50.90;;;;;;4998537;28;20026;-62
2023/07/29 11:25:28;;;;;;;6.75;4.65;;;31.70;50.80;;;;;;4998434;28;20026;-62
2023/07/29 11:27:58;;;;;;;8.13;4.82;;;31.60;50.60;;;;;;4998134;28;20039;-65
2023/07/29 11:30:29;;;;;;;8.40;4.47;;;31.50;50.80;;;;;;4998199;28;20028;-66
2023/07/29 11:32:56;;;;;;;9.43;4.10;;;31.60;50.80;;;;;;4998679;28;20030;-62
2023/07/29 11:35:25;;;;;;;7.95;4.38;;;31.60;50.90;;;;;;4998576;28;20045;-61
2023/07/29 11:37:52;;;;;;;6.40;4.30;;;31.70;50.40;;;;;;4998432;28;20041;-64
2023/07/29 11:40:22;;;;;;;6.95;4.40;;;31.70;50.20;;;;;;4998506;28;20022;-65
2023/07/29 11:42:51;;;;;;;7.43;4.63;;;31.70;50.00;;;;;;4997098;28;20054;-64
2023/07/29 11:45:18;;;;;;;5.78;4.53;;;31.70;50.20;;;;;;4997745;28;20023;-62
2023/07/29 11:47:45;;;;;;;6.60;4.25;;;31.70;50.10;;;;;;4997760;28;20026;-62
2023/07/29 11:50:16;;;;;;;4.60;3.90;;;31.70;49.50;;;;;;4997755;28;20041;-67
2023/07/29 11:52:49;;;;;;;6.53;4.25;;;31.70;49.80;;;;;;4998326;28;20030;-66
2023/07/29 11:55:16;;;;;;;4.85;3.95;;;31.80;49.90;;;;;;4997614;28;20026;-61
2023/07/29 11:57:49;;;;;;;6.05;3.85;;;31.90;49.30;;;;;;4997559;28;20031;-64
2023/07/29 12:00:18;;;;;;;5.88;4.00;;;31.90;49.10;;;;;;4997578;28;20109;-62
2023/07/29 12:02:45;;;;;;;10.25;4.20;;;32.00;48.90;;;;;;4997504;28;20102;-64
2023/07/29 12:05:14;;;;;;;7.45;4.10;;;32.00;48.30;;;;;;4997102;28;20014;-63
2023/07/29 12:07:42;;;;;;;5.78;4.03;;;32.00;48.20;;;;;;4994882;28;20026;-61
2023/07/29 12:10:08;;;;;;;8.57;4.35;;;32.00;48.50;;;;;;4995846;28;20027;-63
2023/07/29 12:12:46;;;;;;;6.72;4.10;;;32.00;48.60;;;;;;4995421;28;20047;-61
2023/07/29 12:15:13;;;;;;;6.22;4.28;;;32.00;48.40;;;;;;4996496;28;20125;-65
2023/07/29 12:17:42;;;;;;;8.35;4.13;;;32.00;48.60;;;;;;4997317;28;20069;-63
2023/07/29 12:20:12;;;;;;;6.80;4.45;;;32.20;48.00;;;;;;4997269;28;20026;-65
2023/07/29 12:22:40;;;;;;;5.20;3.70;;;32.20;47.60;;;;;;4996235;28;20030;-63
2023/07/29 12:25:08;;;;;;;7.13;3.97;;;32.10;47.80;;;;;;4997153;28;20018;-64
2023/07/29 12:27:34;;;;;;;9.10;4.40;;;32.20;48.00;;;;;;4996208;28;20037;-62
2023/07/29 12:30:05;;;;;;;7.35;4.30;;;32.20;47.60;;;;;;4997035;28;20018;-62
2023/07/29 12:32:31;;;;;;;7.18;4.40;;;32.10;47.20;;;;;;4996661;28;20109;-62
2023/07/29 12:34:59;;;;;;;7.20;4.50;;;32.00;47.10;;;;;;4997470;28;20081;-62
2023/07/29 12:37:32;;;;;;;8.90;4.60;;;31.90;47.30;;;;;;4996719;28;20148;-62
2023/07/29 12:40:01;;;;;;;7.20;4.22;;;31.80;47.30;;;;;;4996769;28;20110;-61
2023/07/29 12:42:30;;;;;;;7.70;4.88;;;31.70;48.00;;;;;;4996784;28;20026;-63
2023/07/29 12:44:57;;;;;;;6.38;4.05;;;31.70;48.20;;;;;;4997149;28;20413;-62
2023/07/29 12:47:22;;;;;;;7.15;4.10;;;31.60;48.40;;;;;;4996512;28;20110;-62
2023/07/29 12:49:49;;;;;;;5.38;4.03;;;31.70;48.70;;;;;;4996587;28;20385;-63